Portada
METAR-TAF:

METAR-TAF

Aeropuertos :

Kitakyushu, Japón

latitud: 33-50N, longitud: 130-57E, altitud: 3 m

Observación

El informe se hizo hace 30 minutos, a las 15:00 UTC
Viento 1 kt con dirección variable
Temperatura 23°C
Humedad 78%
Presión 1006 hPa
Visibilidad 10 km o más
Escasas nubes a una altura de 1500 ft
Nubes dispersas a una altura de 4000 ft
Cielo nuboso a una altura de 5000 ft

METAR: RJFR 041500Z VRB01KT 9999 FEW015 SCT040 BKN050 23/19 Q1006

Hora: 00:30 (15:30 UTC)

Pronóstico

El informe se hizo hace 4 horas y 23 minutos, a las 11:07 UTC
Pronóstico válido del 04 a las 12 UTC al 05 a las 18 UTC
Viento 5 kt del norte
Visibilidad 10 km o más
Escasas nubes a una altura de 2000 ft
Nubes dispersas a una altura de 3000 ft
Cielo nuboso a una altura de 4000 ft
Evolucionando progresivamente
del 05 a las 00 UTC al 05 a las 03 UTC
Viento 4 kt del este-sureste

TAF: RJFR 041107Z 0412/0518 35005KT 9999 FEW020 SCT030 BKN040 BECMG 0500/0503 11004KT

Observaciones y pronósticos meteorológicos de más de 4000 aeropuertos (mensajes METAR y TAF).

Los puntos amarillos y rojos representan las estaciones disponibles.

Ponga el ratón en el punto deseado para ver el nombre de la estación.

Haga clic para ver las observaciones y los pronósticos meteorológicos.

Para cambiar el mapa : haga clic en los botones verdes con una cruz de color negro para hacer un zoom, en el botón verde con un guión para alejar o en las flechas verdes para mapas adyacentes.


METAR-TAF: